Time;durP1;ratioP1;P1;durP2;ratioP2;P2;SDS_P1;SDS_P2;PMS_P1;PMS_P2;Temp;Humidity;BMP_temperature;BMP_pressure;BME280_temperature;BME280_humidity;BME280_pressure;Samples;Min_cycle;Max_cycle;Signal;HPM_P1;HPM_P2
2020/12/02 00:00:22;;;;;;;;;;;;;;;22.87;48.47;99971.41;5094568;28;20020;-67
2020/12/02 00:02:54;;;;;;;8.40;4.57;;;;;;;22.86;48.51;99975.00;5093100;28;19916;-67
2020/12/02 00:05:20;;;;;;;8.80;4.55;;;;;;;22.85;48.57;99973.28;5093799;28;20024;-68
2020/12/02 00:07:46;;;;;;;8.93;5.05;;;;;;;22.84;48.45;99977.72;5093326;28;20085;-67
2020/12/02 00:10:11;;;;;;;10.95;4.72;;;;;;;22.84;48.33;99975.06;5093263;28;20035;-67
2020/12/02 00:12:40;;;;;;;8.02;4.53;;;;;;;22.84;48.35;99982.16;5093294;28;20024;-67
2020/12/02 00:15:06;;;;;;;8.90;4.68;;;;;;;22.83;48.31;99976.00;5094277;28;20028;-67
2020/12/02 00:17:32;;;;;;;9.82;5.32;;;;;;;22.82;48.45;99974.28;5076596;28;20024;-67
2020/12/02 00:19:57;;;;;;;8.02;4.53;;;;;;;22.82;48.39;99982.25;5049115;28;20487;-67
2020/12/02 00:22:23;;;;;;;8.85;4.82;;;;;;;22.82;48.59;99979.59;5054010;28;20075;-67
2020/12/02 00:24:49;;;;;;;9.82;4.75;;;;;;;22.83;48.51;99977.78;5053133;28;20041;-67
2020/12/02 00:27:27;;;;;;;8.60;4.70;;;;;;;22.82;48.59;99979.59;5052778;28;20028;-67
2020/12/02 00:29:52;;;;;;;8.98;4.30;;;;;;;22.82;48.56;99974.28;5036803;28;20517;-67
2020/12/02 00:32:32;;;;;;;7.53;4.40;;;;;;;22.82;48.44;99984.91;5053686;28;20021;-67
2020/12/02 00:34:58;;;;;;;7.68;4.50;;;;;;;22.82;48.54;99984.91;5054214;28;20021;-67
2020/12/02 00:37:24;;;;;;;8.23;4.55;;;;;;;22.81;48.56;99983.16;5053760;28;20090;-67
2020/12/02 00:39:49;;;;;;;7.53;4.50;;;;;;;22.81;48.42;99983.16;5052671;28;20474;-67
2020/12/02 00:42:15;;;;;;;7.85;4.45;;;;;;;22.80;48.50;99981.47;5053566;28;20033;-67
2020/12/02 00:44:40;;;;;;;8.68;4.72;;;;;;;22.80;48.45;99976.16;5053945;28;20040;-68
2020/12/02 00:47:10;;;;;;;8.25;4.63;;;;;;;22.79;48.55;99975.25;5053462;28;20414;-67
2020/12/02 00:49:37;;;;;;;8.32;4.43;;;;;;;22.80;48.45;99970.84;5035911;28;20039;-67
2020/12/02 00:52:04;;;;;;;8.38;4.60;;;;;;;22.79;48.67;99963.78;5053511;28;20025;-67
2020/12/02 00:54:30;;;;;;;7.40;4.40;;;;;;;22.78;48.57;99968.25;5035645;28;20032;-67
2020/12/02 00:56:58;;;;;;;8.00;4.40;;;;;;;22.79;48.58;99969.94;5035847;28;20033;-67
2020/12/02 00:59:25;;;;;;;8.52;4.70;;;;;;;22.77;48.81;99976.28;5052196;28;20100;-67
2020/12/02 01:02:14;;;;;;;6.82;4.20;;;;;;;22.78;48.64;99978.88;5051975;28;20028;-67
2020/12/02 01:04:39;;;;;;;8.48;4.45;;;;;;;22.78;48.49;99972.69;5043751;28;20040;-67
2020/12/02 01:07:05;;;;;;;8.15;4.28;;;;;;;22.77;48.59;99970.97;5052263;28;20025;-67
2020/12/02 01:09:30;;;;;;;7.82;4.32;;;;;;;22.77;48.46;99968.31;5052198;28;20055;-67
2020/12/02 01:12:00;;;;;;;8.10;4.60;;;;;;;22.76;48.62;99964.78;5053145;28;20033;-67
2020/12/02 01:14:25;;;;;;;8.35;4.60;;;;;;;22.76;48.66;99969.22;5035392;28;20036;-66
2020/12/02 01:16:52;;;;;;;7.85;4.57;;;;;;;22.76;48.54;99969.22;5052017;28;20040;-67
2020/12/02 01:19:22;;;;;;;9.93;4.70;;;;;;;22.76;48.54;99962.13;5054176;28;20017;-66
2020/12/02 01:21:55;;;;;;;7.63;4.43;;;;;;;22.76;48.66;99963.91;5058754;28;20063;-67
2020/12/02 01:24:23;;;;;;;7.10;4.30;;;;;;;22.76;48.66;99966.56;5075265;28;20028;-66
2020/12/02 01:26:53;;;;;;;7.68;4.32;;;;;;;22.75;48.48;99959.53;5074617;28;20124;-67
2020/12/02 01:29:20;;;;;;;8.15;4.53;;;;;;;22.74;48.36;99966.66;5093357;28;20031;-67
2020/12/02 01:31:50;;;;;;;7.68;4.57;;;;;;;22.75;48.59;99967.50;5056719;28;20460;-67
2020/12/02 01:34:16;;;;;;;8.05;4.60;;;;;;;22.76;48.64;99969.22;5074958;28;20433;-67
2020/12/02 01:37:06;;;;;;;11.10;4.68;;;;;;;22.74;48.61;99965.75;5074774;28;20020;-67
2020/12/02 01:39:33;;;;;;;9.00;4.60;;;;;;;22.74;48.61;99963.09;5072837;28;20467;-67
2020/12/02 01:41:59;;;;;;;7.97;4.55;;;;;;;22.74;48.47;99965.75;5074473;28;20040;-67
2020/12/02 01:44:24;;;;;;;8.77;4.93;;;;;;;22.73;48.69;99969.38;5074876;28;20085;-67
2020/12/02 01:47:02;;;;;;;7.03;4.00;;;;;;;22.74;48.64;99960.44;5091408;28;20032;-67
2020/12/02 01:49:39;;;;;;;7.90;4.55;;;;;;;22.73;48.57;99964.06;5059155;28;20024;-67
2020/12/02 01:52:31;;;;;;;8.27;4.90;;;;;;;22.72;48.66;99954.34;5058523;28;20453;-67
2020/12/02 01:54:57;;;;;;;7.72;4.40;;;;;;;22.72;48.65;99959.66;5088632;28;20070;-67
2020/12/02 01:57:24;;;;;;;9.02;4.60;;;;;;;22.71;48.57;99960.59;5074948;28;20534;-67
2020/12/02 02:00:01;;;;;;;8.52;4.40;;;;;;;22.71;48.56;99963.25;5074610;28;20030;-67
2020/12/02 02:02:37;;;;;;;7.88;4.50;;;;;;;22.71;48.95;99960.59;5092325;28;20032;-67
2020/12/02 02:05:08;;;;;;;9.05;5.10;;;;;;;22.69;48.67;99960.66;5091412;28;20020;-67
2020/12/02 02:07:37;;;;;;;7.93;4.60;;;;;;;22.69;48.61;99951.84;5092265;28;20512;-67
2020/12/02 02:10:11;;;;;;;8.43;4.65;;;;;;;22.68;48.57;99956.31;5074621;28;20465;-67
2020/12/02 02:12:36;;;;;;;7.80;4.63;;;;;;;22.67;48.67;99951.91;5074643;28;20036;-67
2020/12/02 02:15:05;;;;;;;7.35;4.43;;;;;;;22.67;48.66;99949.25;5091984;28;20028;-67
2020/12/02 02:17:30;;;;;;;8.15;4.50;;;;;;;22.67;48.67;99943.94;5092417;28;20032;-67
2020/12/02 02:19:56;;;;;;;7.68;4.47;;;;;;;22.67;48.53;99945.75;5057287;28;20051;-67
2020/12/02 02:22:22;;;;;;;8.30;4.72;;;;;;;22.67;48.47;99951.06;5089601;28;20597;-67
2020/12/02 02:24:47;;;;;;;7.53;4.28;;;;;;;22.67;48.64;99943.09;5062228;28;20043;-67
2020/12/02 02:27:13;;;;;;;8.13;4.80;;;;;;;22.67;48.50;99940.44;5074225;28;20028;-67
2020/12/02 02:29:39;;;;;;;9.30;4.70;;;;;;;22.67;48.56;99941.28;5074235;28;20039;-67
2020/12/02 02:32:08;;;;;;;7.20;4.45;;;;;;;22.66;48.58;99944.84;5074020;28;20024;-67
2020/12/02 02:34:35;;;;;;;7.63;4.55;;;;;;;22.67;48.62;99945.75;5091235;28;20452;-67
2020/12/02 02:37:01;;;;;;;7.78;4.40;;;;;;;22.67;48.63;99943.94;5092505;28;20588;-67
2020/12/02 02:39:27;;;;;;;8.20;4.20;;;;;;;22.68;48.34;99950.09;5076832;28;20037;-67
2020/12/02 02:42:00;;;;;;;7.47;4.40;;;;;;;22.67;48.59;99948.41;5095043;28;20049;-67
2020/12/02 02:44:25;;;;;;;6.57;3.83;;;;;;;22.66;48.52;99947.50;5096407;28;20111;-67
2020/12/02 02:46:51;;;;;;;7.07;4.28;;;;;;;22.67;48.55;99948.41;5096098;28;20024;-67
2020/12/02 02:49:16;;;;;;;7.18;4.18;;;;;;;22.66;48.57;99944.00;5077956;28;20024;-67
2020/12/02 02:51:42;;;;;;;7.63;4.43;;;;;;;22.66;48.69;99942.19;5096108;28;20036;-67
2020/12/02 02:54:07;;;;;;;7.05;4.30;;;;;;;22.66;48.50;99941.34;5077803;28;20073;-67
2020/12/02 02:56:33;;;;;;;7.95;4.47;;;;;;;22.66;48.52;99951.97;5094768;28;20028;-67
2020/12/02 02:58:58;;;;;;;7.78;4.53;;;;;;;22.65;48.52;99940.50;5095889;28;20474;-67
2020/12/02 03:01:24;;;;;;;8.55;4.53;;;;;;;22.65;48.52;99944.94;5060795;28;20035;-67
2020/12/02 03:03:49;;;;;;;7.95;4.40;;;;;;;22.66;48.70;99938.69;5096076;28;20028;-67
2020/12/02 03:06:15;;;;;;;6.88;4.15;;;;;;;22.66;48.54;99946.66;5078156;28;20107;-67
2020/12/02 03:08:40;;;;;;;7.95;4.50;;;;;;;22.66;48.63;99946.66;5096052;28;20036;-67
2020/12/02 03:11:09;;;;;;;7.78;4.43;;;;;;;22.65;48.69;99948.47;5077843;28;20035;-67
2020/12/02 03:13:50;;;;;;;7.57;4.50;;;;;;;22.65;48.60;99950.25;5078949;28;20035;-67
2020/12/02 03:16:38;;;;;;;7.40;4.28;;;;;;;22.66;48.60;99954.63;5077543;28;20020;-67
2020/12/02 03:19:33;;;;;;;7.75;4.47;;;;;;;22.66;48.65;99951.97;5060464;28;20042;-67
2020/12/02 03:22:09;;;;;;;7.80;4.75;;;;;;;22.66;48.62;99957.28;5064618;28;20075;-67
2020/12/02 03:24:35;;;;;;;7.15;4.20;;;;;;;22.65;48.50;99955.56;5061282;28;20039;-67
2020/12/02 03:27:00;;;;;;;7.55;4.40;;;;;;;22.65;48.48;99958.22;5061032;28;20047;-67
2020/12/02 03:29:25;;;;;;;6.35;3.90;;;;;;;22.65;48.53;99950.25;5095248;28;20036;-67
2020/12/02 03:31:51;;;;;;;8.90;4.38;;;;;;;22.64;48.66;99960.00;5095163;28;20024;-67
2020/12/02 03:34:20;;;;;;;8.02;4.30;;;;;;;22.65;48.51;99960.88;5072466;28;20477;-67
2020/12/02 03:36:46;;;;;;;6.38;3.88;;;;;;;22.65;48.68;99960.88;5076849;28;20040;-67
2020/12/02 03:39:12;;;;;;;7.07;4.10;;;;;;;22.64;48.78;99965.31;5093530;28;20466;-67
2020/12/02 03:41:38;;;;;;;6.45;4.10;;;;;;;22.65;48.48;99958.22;5077028;28;20032;-67
2020/12/02 03:44:03;;;;;;;7.55;4.30;;;;;;;22.64;48.66;99969.78;5077108;28;20027;-67
2020/12/02 03:46:29;;;;;;;8.00;4.53;;;;;;;22.64;48.45;99959.16;5076640;28;20024;-67
2020/12/02 03:48:54;;;;;;;8.45;4.40;;;;;;;22.63;48.67;99963.59;5110342;28;20498;-67
2020/12/02 03:51:20;;;;;;;7.25;4.18;;;;;;;22.64;48.57;99964.47;5094783;28;20031;-67
2020/12/02 03:53:46;;;;;;;7.07;4.32;;;;;;;22.64;48.67;99964.47;5060404;28;20035;-67
2020/12/02 03:56:11;;;;;;;6.97;4.30;;;;;;;22.64;48.66;99961.81;5095111;28;20028;-67
2020/12/02 03:58:37;;;;;;;7.15;4.13;;;;;;;22.63;48.57;99960.09;5094695;28;20020;-67
2020/12/02 04:01:03;;;;;;;6.50;3.92;;;;;;;22.64;48.55;99964.47;5076785;28;20032;-67
2020/12/02 04:03:28;;;;;;;7.53;4.38;;;;;;;22.64;48.60;99967.13;5077166;28;20389;-67
2020/12/02 04:05:54;;;;;;;7.05;4.13;;;;;;;22.63;48.50;99962.75;5075924;28;20036;-67
2020/12/02 04:08:19;;;;;;;6.80;4.00;;;;;;;22.63;48.67;99965.41;5093352;28;20366;-67
2020/12/02 04:10:44;;;;;;;6.70;3.80;;;;;;;22.62;48.54;99956.56;5094938;28;20400;-67
2020/12/02 04:13:10;;;;;;;7.32;4.30;;;;;;;22.63;48.66;99957.44;5076572;28;20024;-67
2020/12/02 04:15:35;;;;;;;6.65;3.97;;;;;;;22.63;48.47;99963.59;5076608;28;20028;-67
2020/12/02 04:18:01;;;;;;;6.70;4.05;;;;;;;22.62;48.44;99956.56;5094401;28;20024;-67
2020/12/02 04:20:26;;;;;;;6.85;3.60;;;;;;;22.63;48.57;99960.09;5072708;28;20056;-67
2020/12/02 04:22:55;;;;;;;6.35;4.03;;;;;;;22.63;48.65;99957.44;5074433;28;20024;-67
2020/12/02 04:25:23;;;;;;;6.38;4.00;;;;;;;22.64;48.46;99959.16;5074254;28;20105;-67
2020/12/02 04:27:48;;;;;;;7.43;4.22;;;;;;;22.63;48.46;99968.91;5073653;28;20437;-67
2020/12/02 04:30:14;;;;;;;7.38;3.92;;;;;;;22.64;48.51;99959.16;5074245;28;20103;-67
2020/12/02 04:32:39;;;;;;;7.30;4.22;;;;;;;22.65;48.40;99963.53;5073964;28;20032;-67
